Time;durP1;ratioP1;P1;durP2;ratioP2;P2;SDS_P1;SDS_P2;PMS_P1;PMS_P2;Temp;Humidity;BMP_temperature;BMP_pressure;BME280_temperature;BME280_humidity;BME280_pressure;Samples;Min_cycle;Max_cycle;Signal;HPM_P1;HPM_P2
2022/10/06 00:01:08;;;;;;;74.68;71.40;;;;;;;12.16;100.00;101645.25;5057497;28;20029;-75
2022/10/06 00:03:34;;;;;;;62.33;60.10;;;;;;;12.14;100.00;101648.03;5056910;28;20024;-75
2022/10/06 00:06:02;;;;;;;75.18;72.47;;;;;;;12.16;100.00;101652.38;5058078;28;20720;-75
2022/10/06 00:08:33;;;;;;;69.75;67.20;;;;;;;12.17;100.00;101652.22;5062564;28;20044;-75
2022/10/06 00:10:59;;;;;;;67.28;64.13;;;;;;;12.16;100.00;101645.25;5059773;28;20095;-75
2022/10/06 00:13:25;;;;;;;71.15;67.40;;;;;;;12.16;100.00;101661.13;5062654;28;20468;-75
2022/10/06 00:15:51;;;;;;;72.50;69.75;;;;;;;12.11;100.00;101664.22;5061607;28;20020;-75
2022/10/06 00:18:16;;;;;;;78.03;74.88;;;;;;;12.08;100.00;101668.94;5059235;28;20058;-75
2022/10/06 00:20:42;;;;;;;77.78;74.82;;;;;;;11.91;100.00;101668.66;5066178;28;20061;-75
2022/10/06 00:23:08;;;;;;;71.45;68.90;;;;;;;12.02;100.00;101696.81;5060972;28;20072;-75
2022/10/06 00:25:33;;;;;;;68.97;66.53;;;;;;;12.01;100.00;101694.28;5065215;28;20059;-75
2022/10/06 00:27:59;;;;;;;62.55;59.85;;;;;;;12.05;100.00;101696.50;5059213;28;20029;-75
2022/10/06 00:30:26;;;;;;;70.40;67.65;;;;;;;12.05;100.00;101711.56;5068115;28;20032;-75
2022/10/06 00:32:55;;;;;;;74.07;71.43;;;;;;;11.99;100.00;101722.69;5062371;28;20068;-75
2022/10/06 00:35:21;;;;;;;73.15;70.28;;;;;;;12.01;100.00;101716.28;5061009;28;20024;-75
2022/10/06 00:37:46;;;;;;;76.47;73.78;;;;;;;12.04;100.00;101720.47;5058270;28;20138;-75
2022/10/06 00:40:12;;;;;;;75.35;72.63;;;;;;;11.90;100.00;101713.78;5059535;28;20445;-75
2022/10/06 00:42:56;;;;;;;73.47;70.82;;;;;;;11.97;100.00;101729.94;5062201;28;20024;-75
2022/10/06 00:45:44;;;;;;;64.00;61.70;;;;;;;11.95;100.00;101732.69;5058078;28;20028;-75
2022/10/06 00:48:19;;;;;;;63.13;60.53;;;;;;;11.92;100.00;101738.28;5064402;28;20052;-75
2022/10/06 00:50:45;;;;;;;64.30;61.40;;;;;;;11.87;100.00;101741.31;5059152;28;20051;-75
2022/10/06 00:53:11;;;;;;;71.85;69.25;;;;;;;11.72;100.00;101714.41;5057191;28;20104;-75
2022/10/06 00:55:37;;;;;;;64.15;61.65;;;;;;;11.80;100.00;101742.84;5063482;28;20052;-75
2022/10/06 00:58:04;;;;;;;71.30;68.78;;;;;;;11.69;100.00;101724.41;5055349;28;20115;-75
2022/10/06 01:00:30;;;;;;;75.93;72.72;;;;;;;11.83;100.00;101761.06;5072715;28;20025;-75
2022/10/06 01:02:59;;;;;;;62.13;59.88;;;;;;;11.88;100.00;101756.22;5058085;28;20041;-75
2022/10/06 01:05:29;;;;;;;72.00;69.38;;;;;;;11.87;100.00;101759.81;5057199;28;20387;-75
2022/10/06 01:07:55;;;;;;;69.95;67.43;;;;;;;11.85;100.00;101769.69;5063906;28;20414;-75
2022/10/06 01:10:20;;;;;;;68.80;66.25;;;;;;;11.85;100.00;101761.75;5063553;28;20029;-76
2022/10/06 01:12:46;;;;;;;72.82;70.07;;;;;;;11.83;100.00;101763.72;5056651;28;20037;-75
2022/10/06 01:15:13;;;;;;;74.28;71.55;;;;;;;11.78;100.00;101773.88;5060877;28;20039;-75
2022/10/06 01:17:45;;;;;;;75.70;71.97;;;;;;;11.78;100.00;101778.28;5056656;28;20566;-75
2022/10/06 01:20:16;;;;;;;73.72;71.07;;;;;;;11.78;100.00;101783.59;5060793;28;20392;-75
2022/10/06 01:22:59;;;;;;;67.38;64.97;;;;;;;11.78;100.00;101788.88;5058330;28;20036;-75
2022/10/06 01:25:25;;;;;;;74.28;71.40;;;;;;;11.79;100.00;101790.56;5059848;28;20051;-75
2022/10/06 01:27:53;;;;;;;66.90;64.38;;;;;;;11.62;100.00;101758.50;5057968;28;20029;-75
2022/10/06 01:30:45;;;;;;;71.03;68.35;;;;;;;11.75;100.00;101795.28;5056162;28;20029;-75
2022/10/06 01:33:10;;;;;;;;;;;;;;;11.74;100.00;101798.91;5059618;28;20032;-75
2022/10/06 01:35:36;;;;;;;64.63;62.17;;;;;;;11.75;100.00;101803.22;5058567;28;20528;-75
2022/10/06 01:38:01;;;;;;;62.65;59.15;;;;;;;11.67;100.00;101806.53;5058997;28;20063;-75
2022/10/06 01:40:28;;;;;;;66.57;64.22;;;;;;;11.65;100.00;101812.91;5061993;28;20021;-75
2022/10/06 01:42:54;;;;;;;65.45;63.03;;;;;;;11.63;100.00;101817.53;5069115;28;20024;-75
2022/10/06 01:45:19;;;;;;;67.32;64.43;;;;;;;11.59;100.00;101810.81;5065538;28;20035;-75
2022/10/06 01:47:45;;;;;;;71.05;68.45;;;;;;;11.51;100.00;101819.41;5060473;28;20029;-75
2022/10/06 01:50:10;;;;;;;66.63;64.05;;;;;;;11.46;100.00;101827.72;5061633;28;20067;-75
2022/10/06 01:52:36;;;;;;;72.50;69.68;;;;;;;11.42;100.00;101839.53;5061754;28;20064;-76
2022/10/06 01:55:02;;;;;;;70.50;67.75;;;;;;;11.37;100.00;101827.69;5062339;28;20047;-75
2022/10/06 01:57:27;;;;;;;71.40;68.20;;;;;;;11.35;100.00;101830.47;5060203;28;20029;-75
2022/10/06 01:59:52;;;;;;;67.50;64.57;;;;;;;11.35;100.00;101832.28;5067241;28;20575;-75
2022/10/06 02:02:18;;;;;;;64.95;61.88;;;;;;;11.33;100.00;101853.53;5058967;28;20476;-75
2022/10/06 02:04:43;;;;;;;65.32;62.90;;;;;;;11.36;100.00;101853.25;5063120;28;20029;-75
2022/10/06 02:07:08;;;;;;;68.43;65.90;;;;;;;11.34;100.00;101868.41;5062203;28;20071;-75
2022/10/06 02:09:34;;;;;;;62.15;59.55;;;;;;;11.31;100.00;101866.88;5062793;28;20499;-75
2022/10/06 02:11:59;;;;;;;70.82;68.28;;;;;;;11.31;100.00;101851.00;5070683;28;20385;-75
2022/10/06 02:14:24;;;;;;;68.65;65.93;;;;;;;11.26;100.00;101878.81;5061024;28;20120;-75
2022/10/06 02:16:50;;;;;;;67.15;64.68;;;;;;;11.26;100.00;101878.81;5061421;28;20029;-75
2022/10/06 02:19:15;;;;;;;59.63;57.20;;;;;;;11.23;100.00;101886.97;5063986;28;20123;-75
2022/10/06 02:21:41;;;;;;;64.90;62.53;;;;;;;11.17;100.00;101888.34;5071922;28;20090;-75
2022/10/06 02:24:07;;;;;;;66.30;63.75;;;;;;;11.10;100.00;101888.03;5068239;28;20467;-75
2022/10/06 02:26:32;;;;;;;63.78;61.47;;;;;;;11.10;100.00;101889.81;5064837;28;20906;-75
2022/10/06 02:28:57;;;;;;;60.75;58.38;;;;;;;11.03;100.00;101888.66;5060801;28;20503;-75
2022/10/06 02:31:23;;;;;;;68.18;65.70;;;;;;;11.00;100.00;101899.50;5081695;28;20034;-75
2022/10/06 02:33:50;;;;;;;66.45;62.55;;;;;;;10.98;100.00;101906.69;5057915;28;20503;-75
2022/10/06 02:36:16;;;;;;;58.95;56.67;;;;;;;10.87;100.00;101892.56;5061871;28;20020;-75
2022/10/06 02:38:42;;;;;;;67.18;64.38;;;;;;;10.89;100.00;101903.84;5059925;28;20078;-75
2022/10/06 02:41:09;;;;;;;60.53;57.65;;;;;;;10.87;100.00;101912.84;5065859;28;20067;-75
2022/10/06 02:43:34;;;;;;;67.88;65.05;;;;;;;10.89;100.00;101913.56;5062535;28;20532;-75
2022/10/06 02:46:10;;;;;;;69.38;66.60;;;;;;;10.86;100.00;101919.91;5064573;28;20029;-75
2022/10/06 02:48:36;;;;;;;62.70;60.20;;;;;;;10.88;100.00;101917.16;5057694;28;20048;-75
2022/10/06 02:51:08;;;;;;;60.22;57.88;;;;;;;10.86;100.00;101933.13;5066238;28;20027;-75
2022/10/06 02:53:34;;;;;;;60.88;58.22;;;;;;;10.85;100.00;101939.38;5070871;28;20111;-75
2022/10/06 02:56:03;;;;;;;65.47;62.85;;;;;;;10.82;100.00;101942.28;5057540;28;20033;-75
2022/10/06 02:58:28;;;;;;;62.08;59.05;;;;;;;10.80;100.00;101946.00;5059664;28;20043;-75
2022/10/06 03:00:59;;;;;;;64.55;62.22;;;;;;;10.83;100.00;101951.03;5058206;28;20033;-75
2022/10/06 03:03:25;;;;;;;62.90;60.42;;;;;;;10.81;100.00;101952.97;5059081;28;20391;-75
2022/10/06 03:05:58;;;;;;;64.18;61.60;;;;;;;10.69;100.00;101931.88;5059004;28;20029;-75
2022/10/06 03:08:24;;;;;;;63.45;61.20;;;;;;;10.87;100.00;101973.59;5067992;28;20033;-75
2022/10/06 03:10:49;;;;;;;63.70;61.25;;;;;;;10.89;100.00;101982.25;5063145;28;20426;-75
2022/10/06 03:13:14;;;;;;;66.65;63.80;;;;;;;10.90;100.00;101981.25;5062793;28;20060;-75
2022/10/06 03:15:40;;;;;;;63.65;61.05;;;;;;;10.88;100.00;101980.56;5058528;28;20436;-75
2022/10/06 03:18:05;;;;;;;71.10;68.20;;;;;;;10.88;100.00;101985.84;5057619;28;20170;-75
2022/10/06 03:20:30;;;;;;;70.60;67.93;;;;;;;10.87;100.00;101995.56;5064371;28;20452;-75
2022/10/06 03:22:56;;;;;;;63.72;60.55;;;;;;;10.83;100.00;101995.94;5063787;28;20696;-74
2022/10/06 03:25:21;;;;;;;65.85;62.88;;;;;;;10.86;100.00;102009.72;5061658;28;20094;-74
2022/10/06 03:27:47;;;;;;;62.67;60.42;;;;;;;10.85;100.00;102012.50;5058687;28;20030;-75
2022/10/06 03:30:12;;;;;;;62.45;60.05;;;;;;;10.82;100.00;102010.09;5060844;28;20036;-75
2022/10/06 03:32:38;;;;;;;60.33;57.70;;;;;;;10.81;100.00;102011.91;5070532;28;20079;-75
2022/10/06 03:35:03;;;;;;;68.60;65.55;;;;;;;10.79;100.00;102020.91;5062527;28;20107;-76
2022/10/06 03:37:29;;;;;;;57.72;55.55;;;;;;;10.79;100.00;102020.91;5064171;28;20032;-75
2022/10/06 03:39:54;;;;;;;66.30;63.72;;;;;;;10.72;100.00;102022.38;5057471;28;20090;-75
2022/10/06 03:42:19;;;;;;;66.38;63.75;;;;;;;10.70;100.00;102033.88;5065896;28;20064;-75
2022/10/06 03:44:44;;;;;;;69.35;66.10;;;;;;;10.67;100.00;102028.84;5063038;28;20060;-75
2022/10/06 03:47:10;;;;;;;59.92;57.65;;;;;;;10.65;100.00;102033.41;5063612;28;20082;-75
2022/10/06 03:49:35;;;;;;;60.08;57.58;;;;;;;10.63;100.00;102026.59;5061849;28;20083;-75
2022/10/06 03:52:00;;;;;;;63.10;60.10;;;;;;;10.62;100.00;102031.00;5053093;28;20025;-75
2022/10/06 03:54:26;;;;;;;61.13;58.85;;;;;;;10.62;100.00;102038.91;5062424;28;20448;-75
2022/10/06 03:56:52;;;;;;;56.88;54.75;;;;;;;10.60;100.00;102046.13;5066123;28;20617;-75
2022/10/06 03:59:18;;;;;;;66.25;63.80;;;;;;;10.59;100.00;102059.47;5072057;28;20032;-75
2022/10/06 04:01:46;;;;;;;61.67;59.28;;;;;;;10.60;100.00;102069.03;5059384;28;20426;-75
2022/10/06 04:04:12;;;;;;;67.07;64.18;;;;;;;10.52;100.00;102071.44;5058046;28;20032;-75
2022/10/06 04:06:40;;;;;;;64.95;62.15;;;;;;;10.50;100.00;102085.59;5054196;28;20041;-75
2022/10/06 04:09:08;;;;;;;60.80;58.25;;;;;;;10.01;100.00;102012.84;5059503;28;20029;-75
2022/10/06 04:11:37;;;;;;;54.53;52.15;;;;;;;10.49;100.00;102089.22;5057794;28;20052;-75
2022/10/06 04:14:05;;;;;;;71.60;68.57;;;;;;;10.45;100.00;102082.50;5062046;28;20032;-75
2022/10/06 04:16:35;;;;;;;60.90;58.05;;;;;;;10.37;100.00;102065.56;5059395;28;20063;-75
2022/10/06 04:19:04;;;;;;;60.67;58.23;;;;;;;10.48;100.00;102084.06;5061007;28;20103;-75
2022/10/06 04:21:32;;;;;;;59.60;57.33;;;;;;;10.46;100.00;102083.31;5064256;28;20029;-75
2022/10/06 04:23:59;;;;;;;58.83;56.55;;;;;;;10.49;100.00;102076.03;5063273;28;20017;-75
2022/10/06 04:26:31;;;;;;;72.55;69.78;;;;;;;10.62;100.00;102099.63;5063392;28;20028;-75
2022/10/06 04:28:57;;;;;;;63.05;60.83;;;;;;;10.65;100.00;102098.59;5056655;28;20047;-75
2022/10/06 04:31:24;;;;;;;67.93;65.22;;;;;;;10.67;100.00;102105.41;5063667;28;20068;-75
2022/10/06 04:33:55;;;;;;;63.65;61.35;;;;;;;10.68;100.00;102122.94;5057036;28;20377;-75
2022/10/06 04:36:23;;;;;;;61.55;59.30;;;;;;;10.65;100.00;102115.25;5058763;28;20033;-75
2022/10/06 04:38:57;;;;;;;66.38;63.92;;;;;;;10.66;100.00;102124.84;5055036;28;20472;-75
2022/10/06 04:41:25;;;;;;;63.45;61.08;;;;;;;10.65;100.00;102128.47;5062613;28;20087;-75
2022/10/06 04:43:51;;;;;;;67.60;65.20;;;;;;;10.63;100.00;102130.38;5068987;28;20032;-75
2022/10/06 04:46:19;;;;;;;71.82;67.78;;;;;;;10.60;100.00;102129.75;5061264;28;20058;-75
2022/10/06 04:48:44;;;;;;;66.30;63.47;;;;;;;10.50;100.00;102129.66;5064154;28;20032;-75
2022/10/06 04:51:12;;;;;;;58.45;56.30;;;;;;;10.44;100.00;102122.19;5058135;28;20043;-75
2022/10/06 04:53:39;;;;;;;62.45;60.03;;;;;;;10.49;100.00;102141.16;5054858;28;20029;-75
2022/10/06 04:56:11;;;;;;;63.10;60.85;;;;;;;10.43;100.00;102149.53;5056031;28;20037;-75
2022/10/06 04:58:38;;;;;;;64.95;62.17;;;;;;;10.39;100.00;102156.03;5058465;28;20037;-75
2022/10/06 05:01:13;;;;;;;63.53;61.22;;;;;;;10.31;100.00;102161.03;5062987;28;20094;-75
2022/10/06 05:03:38;;;;;;;77.30;73.03;;;;;;;10.26;100.00;102170.09;5057796;28;20536;-75
2022/10/06 05:06:07;;;;;;;58.83;56.67;;;;;;;10.26;100.00;102164.81;5059192;28;20181;-75
2022/10/06 05:08:33;;;;;;;66.20;63.85;;;;;;;10.09;100.00;102152.06;5059538;28;20052;-75
2022/10/06 05:11:04;;;;;;;60.47;58.15;;;;;;;10.20;100.00;102164.44;5065280;28;20059;-74
2022/10/06 05:13:30;;;;;;;68.13;65.20;;;;;;;10.20;100.00;102175.00;5062700;28;20025;-75
2022/10/06 05:15:59;;;;;;;66.30;63.80;;;;;;;10.19;100.00;102178.56;5082557;28;20036;-74
2022/10/06 05:18:26;;;;;;;63.95;61.45;;;;;;;10.08;100.00;102171.47;5067529;28;20021;-74
2022/10/06 05:20:57;;;;;;;65.65;63.08;;;;;;;10.17;100.00;102191.91;5063555;28;20047;-73
2022/10/06 05:23:23;;;;;;;65.45;63.05;;;;;;;10.18;100.00;102193.56;5068420;28;20064;-74
2022/10/06 05:25:51;;;;;;;62.53;59.95;;;;;;;10.17;100.00;102202.47;5066470;28;20048;-74
2022/10/06 05:28:16;;;;;;;62.75;60.45;;;;;;;10.14;100.00;102210.59;5056639;28;20032;-74
2022/10/06 05:30:42;;;;;;;59.03;56.55;;;;;;;10.12;100.00;102220.41;5070852;28;20081;-74
2022/10/06 05:33:07;;;;;;;63.78;61.17;;;;;;;10.03;100.00;102205.28;5056964;28;20472;-74
2022/10/06 05:35:32;;;;;;;61.53;59.15;;;;;;;10.13;100.00;102221.28;5063888;28;20028;-74
2022/10/06 05:37:58;;;;;;;58.42;56.10;;;;;;;10.09;100.00;102228.56;5073166;28;20056;-74
2022/10/06 05:40:23;;;;;;;59.88;57.47;;;;;;;10.08;100.00;102232.13;5060668;28;20025;-74
2022/10/06 05:42:49;;;;;;;60.08;57.47;;;;;;;10.06;100.00;102236.69;5063543;28;20495;-75
2022/10/06 05:45:14;;;;;;;62.53;59.78;;;;;;;10.03;100.00;102247.47;5061269;28;20032;-75
2022/10/06 05:47:41;;;;;;;61.63;58.80;;;;;;;10.00;100.00;102240.63;5062252;28;20044;-75
2022/10/06 05:50:06;;;;;;;57.88;55.17;;;;;;;10.03;100.00;102242.19;5071652;28;20033;-75
2022/10/06 05:52:32;;;;;;;64.60;62.28;;;;;;;10.03;100.00;102247.47;5065032;28;20814;-75
2022/10/06 05:54:57;;;;;;;58.00;55.22;;;;;;;10.03;100.00;102252.75;5057691;28;20100;-74
2022/10/06 05:57:22;;;;;;;55.40;53.20;;;;;;;10.00;100.00;102248.53;5068650;28;20037;-74
2022/10/06 05:59:48;;;;;;;56.42;53.95;;;;;;;9.99;100.00;102254.75;5060378;28;20114;-74
2022/10/06 06:02:13;;;;;;;51.05;49.22;;;;;;;10.06;100.00;102268.34;5060609;28;20577;-74
2022/10/06 06:04:39;;;;;;;66.80;64.05;;;;;;;10.07;100.00;102259.47;5075494;28;20436;-74
2022/10/06 06:07:04;;;;;;;56.45;54.00;;;;;;;10.08;100.00;102267.28;5059679;28;20071;-74
2022/10/06 06:09:29;;;;;;;58.92;56.25;;;;;;;10.13;100.00;102268.75;5058871;28;20048;-74
2022/10/06 06:11:55;;;;;;;58.75;56.20;;;;;;;10.14;100.00;102279.19;5064764;28;20543;-74
2022/10/06 06:17:10;;;;;;;54.13;51.55;;;;;;;10.18;100.00;102280.63;5049316;28;20396;-75
2022/10/06 06:19:35;;;;;;;68.10;65.57;;;;;;;10.13;100.00;102280.16;5062267;28;20047;-75
2022/10/06 06:22:01;;;;;;;64.90;61.60;;;;;;;10.19;100.00;102295.53;5068726;28;20661;-75
2022/10/06 06:24:26;;;;;;;61.67;58.85;;;;;;;10.21;100.00;102304.19;5060002;28;20021;-75
2022/10/06 06:26:52;;;;;;;62.15;59.65;;;;;;;10.22;100.00;102311.13;5061921;28;20060;-74
2022/10/06 06:29:17;;;;;;;66.20;63.42;;;;;;;10.32;100.00;102316.59;5062498;28;20025;-74
2022/10/06 06:31:42;;;;;;;56.50;54.50;;;;;;;10.38;100.00;102320.59;5058848;28;20758;-74
2022/10/06 06:34:10;;;;;;;59.05;56.72;;;;;;;10.42;100.00;102316.78;5063795;28;20457;-74
2022/10/06 06:36:39;;;;;;;65.57;63.28;;;;;;;10.46;100.00;102321.72;5060291;28;20036;-74
2022/10/06 06:39:10;;;;;;;68.78;65.88;;;;;;;10.51;100.00;102326.66;5064897;28;20086;-74
2022/10/06 06:41:38;;;;;;;65.20;62.88;;;;;;;10.56;100.00;102324.53;5061526;28;20471;-74
2022/10/06 06:44:07;;;;;;;70.40;67.55;;;;;;;10.65;100.00;102333.56;5059181;28;20024;-74
2022/10/06 06:46:33;;;;;;;107.63;103.60;;;;;;;10.63;100.00;102317.84;5057569;28;20083;-74
2022/10/06 06:49:03;;;;;;;71.15;68.15;;;;;;;10.77;100.00;102326.50;5061686;28;20577;-74
2022/10/06 06:51:29;;;;;;;69.72;66.82;;;;;;;10.83;100.00;102341.91;5059261;28;20392;-75
2022/10/06 06:53:58;;;;;;;66.32;63.88;;;;;;;10.87;100.00;102338.91;5061053;28;20079;-75
2022/10/06 06:56:23;;;;;;;75.60;72.63;;;;;;;10.94;100.00;102349.03;5059553;28;20025;-75
2022/10/06 06:58:49;;;;;;;68.55;66.05;;;;;;;11.02;100.00;102344.00;5068660;28;20037;-75
2022/10/06 07:01:19;;;;;;;72.22;69.18;;;;;;;11.08;100.00;102362.00;5045301;28;20060;-74
2022/10/06 07:03:50;;;;;;;73.68;70.82;;;;;;;11.06;100.00;102341.03;5059663;28;20040;-74
2022/10/06 07:06:15;;;;;;;67.95;65.28;;;;;;;11.20;100.00;102368.19;5060388;28;20452;-74
2022/10/06 07:08:44;;;;;;;73.90;71.15;;;;;;;11.32;100.00;102359.31;5055268;28;20087;-74
2022/10/06 07:11:24;;;;;;;68.15;65.65;;;;;;;11.22;100.00;102358.34;5064240;28;20360;-74
2022/10/06 07:13:54;;;;;;;67.07;64.43;;;;;;;11.49;100.00;102381.81;5059826;28;20753;-74
2022/10/06 07:25:07;;;;;;;48.58;46.67;;;;;;;11.73;100.00;102403.69;5061563;28;20047;-75
2022/10/06 07:27:35;;;;;;;54.63;52.50;;;;;;;11.74;100.00;102401.91;5058615;28;20024;-75
2022/10/06 07:30:04;;;;;;;57.38;55.05;;;;;;;11.83;100.00;102405.66;5056655;28;20064;-75
2022/10/06 07:32:30;;;;;;;57.95;55.88;;;;;;;11.91;100.00;102408.53;5057930;28;20024;-75
2022/10/06 07:34:59;;;;;;;58.47;55.67;;;;;;;12.00;100.00;102417.56;5058834;28;20039;-74
2022/10/06 07:37:27;;;;;;;54.85;52.42;;;;;;;12.08;100.00;102423.09;5058040;28;20059;-74
2022/10/06 07:39:53;;;;;;;51.33;49.47;;;;;;;12.19;100.00;102432.84;5057749;28;20103;-74
2022/10/06 07:42:18;;;;;;;51.45;49.15;;;;;;;12.28;100.00;102438.25;5062067;28;20111;-74
2022/10/06 07:45:36;;;;;;;61.92;59.53;;;;;;;12.53;99.04;102444.22;5055947;28;20033;-75
2022/10/06 07:47:34;;;;;;;53.58;50.90;;;;;;;13.19;96.13;102433.50;5058958;28;20033;-75
2022/10/06 07:49:59;;;;;;;33.30;31.88;;;;;;;14.12;92.32;102461.84;5073730;28;20048;-75
2022/10/06 07:52:27;;;;;;;17.52;16.52;;;;;;;15.05;87.67;102462.50;5060145;28;20064;-75
2022/10/06 07:54:53;;;;;;;7.75;7.10;;;;;;;15.88;83.84;102470.78;5055911;28;20021;-75
2022/10/06 07:57:19;;;;;;;7.47;4.88;;;;;;;16.81;81.95;102489.41;5059993;28;20459;-75
2022/10/06 07:59:44;;;;;;;2.70;2.05;;;;;;;17.27;78.08;102479.50;5056263;28;20020;-75
2022/10/06 08:02:10;;;;;;;2.25;1.83;;;;;;;17.52;75.91;102485.03;5059276;28;20032;-75
2022/10/06 08:04:35;;;;;;;5.82;2.42;;;;;;;18.17;72.55;102481.94;5061476;28;20284;-75
2022/10/06 08:07:01;;;;;;;6.28;2.17;;;;;;;18.74;70.46;102487.44;5052471;28;20041;-75
2022/10/06 08:09:26;;;;;;;2.40;1.38;;;;;;;19.04;70.13;102496.72;5065483;28;20060;-75
2022/10/06 08:11:51;;;;;;;5.90;1.60;;;;;;;19.58;69.07;102509.63;5066882;28;20031;-75
2022/10/06 08:14:17;;;;;;;3.55;1.23;;;;;;;19.80;67.62;102505.41;5058746;28;20094;-76
2022/10/06 08:16:42;;;;;;;4.50;1.50;;;;;;;20.04;66.65;102499.16;5057320;28;20126;-75
2022/10/06 08:19:07;;;;;;;3.65;1.38;;;;;;;19.84;67.61;102503.25;5062209;28;20035;-75
2022/10/06 08:21:33;;;;;;;6.53;1.15;;;;;;;20.72;64.73;102513.78;5063976;28;20529;-75
2022/10/06 08:23:59;;;;;;;5.68;1.23;;;;;;;20.19;64.51;102509.16;5059134;28;20028;-76
2022/10/06 08:26:26;;;;;;;2.58;1.33;;;;;;;18.99;66.91;102515.13;5056650;28;20033;-75
2022/10/06 08:28:54;;;;;;;2.33;1.70;;;;;;;18.22;70.49;102525.03;5060921;28;20501;-75
2022/10/06 08:31:21;;;;;;;4.82;1.73;;;;;;;17.51;73.40;102520.69;5063109;28;20086;-75
2022/10/06 08:33:47;;;;;;;5.68;2.28;;;;;;;17.30;74.10;102543.22;5055807;28;20033;-75
2022/10/06 08:36:18;;;;;;;3.05;2.15;;;;;;;17.25;75.71;102543.69;5064432;28;20043;-75
2022/10/06 08:38:48;;;;;;;4.70;2.70;;;;;;;16.85;75.83;102544.97;5054429;28;20056;-75
2022/10/06 08:41:34;;;;;;;4.00;2.70;;;;;;;16.36;77.43;102541.69;5061668;28;20034;-75
2022/10/06 08:44:06;;;;;;;3.20;2.83;;;;;;;16.17;79.73;102549.75;5055551;28;20060;-75
2022/10/06 08:46:45;;;;;;;4.28;3.97;;;;;;;16.27;78.71;102558.53;5058006;28;20028;-75
2022/10/06 08:49:16;;;;;;;6.75;4.38;;;;;;;16.19;79.30;102547.78;5062243;28;20029;-75
2022/10/06 08:52:10;;;;;;;7.65;5.15;;;;;;;17.04;77.30;102561.81;5064903;28;20036;-75
2022/10/06 08:54:48;;;;;;;2.97;2.65;;;;;;;18.70;69.96;102569.00;5042342;28;20408;-75
2022/10/06 08:57:45;;;;;;;4.43;1.98;;;;;;;19.80;68.04;102569.72;5060432;28;20029;-75
2022/10/06 09:00:14;;;;;;;6.50;1.77;;;;;;;20.58;64.15;102557.47;5062285;28;20144;-75
2022/10/06 09:02:47;;;;;;;3.85;1.42;;;;;;;20.84;62.34;102567.91;5058147;28;20032;-76
2022/10/06 09:05:18;;;;;;;3.03;1.40;;;;;;;21.48;61.44;102577.56;5056571;28;20040;-76
2022/10/06 09:07:47;;;;;;;;;;;;;;;23.00;59.40;102584.31;5058351;28;20037;-76
2022/10/06 09:10:37;;;;;;;3.80;1.42;;;;;;;23.90;55.80;102595.50;5057939;28;20388;-75
2022/10/06 09:13:10;;;;;;;;;;;;;;;23.51;55.25;102590.59;5061932;28;20500;-75
2022/10/06 09:15:58;;;;;;;3.75;1.40;;;;;;;24.92;52.92;102582.34;5057746;28;20284;-75
2022/10/06 09:18:44;;;;;;;10.65;1.48;;;;;;;25.35;52.58;102604.50;5059366;28;20028;-76
2022/10/06 09:21:16;;;;;;;5.63;1.67;;;;;;;25.25;51.06;102614.84;5056584;28;20617;-75
2022/10/06 09:23:48;;;;;;;2.50;1.35;;;;;;;26.10;50.52;102623.22;5061238;28;20032;-75
2022/10/06 09:26:28;;;;;;;5.65;1.60;;;;;;;25.63;50.74;102625.06;5060828;28;20449;-77
2022/10/06 09:28:55;;;;;;;4.82;1.35;;;;;;;26.64;49.75;102638.28;5055571;28;20346;-76
2022/10/06 09:31:24;;;;;;;4.05;1.35;;;;;;;26.19;47.68;102642.75;5058134;28;20025;-76
2022/10/06 09:33:57;;;;;;;3.08;1.48;;;;;;;26.08;49.16;102641.53;5059816;28;20385;-76
2022/10/06 09:36:23;;;;;;;7.18;1.30;;;;;;;26.59;47.91;102648.13;5052794;28;20029;-76
2022/10/06 09:38:52;;;;;;;2.22;1.13;;;;;;;26.59;49.47;102642.69;5059329;28;20067;-76
2022/10/06 09:41:24;;;;;;;4.43;1.67;;;;;;;26.61;47.75;102640.59;5060547;28;20024;-76
2022/10/06 09:43:52;;;;;;;4.88;1.42;;;;;;;26.18;47.56;102657.34;5058184;28;20086;-76
2022/10/06 09:46:30;;;;;;;1.90;1.05;;;;;;;27.03;47.43;102652.69;5057788;28;20108;-76
2022/10/06 09:49:20;;;;;;;3.05;1.55;;;;;;;24.31;51.69;102662.19;5056771;28;20056;-76
2022/10/06 09:52:02;;;;;;;2.47;1.55;;;;;;;23.90;51.41;102645.91;5051089;28;20044;-76
2022/10/06 09:54:29;;;;;;;3.08;1.42;;;;;;;22.58;53.25;102642.38;5055349;28;20044;-76
2022/10/06 09:56:57;;;;;;;3.33;1.58;;;;;;;23.50;52.61;102627.50;5060223;28;20017;-76
2022/10/06 09:59:30;;;;;;;4.75;1.65;;;;;;;23.86;51.34;102650.03;5056731;28;20109;-76
2022/10/06 10:01:56;;;;;;;5.07;1.65;;;;;;;25.24;50.68;102659.16;5062463;28;20476;-75
2022/10/06 10:04:31;;;;;;;2.17;1.20;;;;;;;25.12;49.84;102666.97;5061618;28;20374;-75
2022/10/06 10:07:25;;;;;;;1.60;1.20;;;;;;;26.35;47.57;102679.38;5057823;28;20051;-75
2022/10/06 10:10:17;;;;;;;4.68;1.40;;;;;;;27.40;46.92;102668.38;5061924;28;20045;-76
2022/10/06 10:12:54;;;;;;;2.97;1.30;;;;;;;27.52;44.80;102669.31;5059223;28;20085;-76
2022/10/06 10:15:19;;;;;;;5.03;1.00;;;;;;;28.70;44.12;102679.31;5059233;28;20043;-76
2022/10/06 10:17:56;;;;;;;4.00;1.37;;;;;;;29.36;42.31;102679.53;5061513;28;20688;-76
2022/10/06 10:20:32;;;;;;;3.85;1.35;;;;;;;28.52;45.42;102682.03;5064529;28;20267;-76
2022/10/06 10:23:02;;;;;;;3.83;1.40;;;;;;;29.19;42.26;102690.22;5062929;28;20595;-76
2022/10/06 10:25:57;;;;;;;3.55;1.40;;;;;;;29.25;42.13;102683.03;5057431;28;20051;-76
2022/10/06 10:28:50;;;;;;;1.80;1.27;;;;;;;27.49;45.13;102689.56;5059730;28;20032;-75
2022/10/06 10:31:40;;;;;;;2.97;1.75;;;;;;;25.30;47.14;102679.91;5058637;28;20029;-75
2022/10/06 10:34:28;;;;;;;3.50;1.73;;;;;;;24.34;50.13;102687.94;5062734;28;20024;-75
2022/10/06 10:37:03;;;;;;;2.85;1.52;;;;;;;25.95;50.43;102687.53;5061465;28;20021;-76
2022/10/06 10:40:07;;;;;;;4.35;1.17;;;;;;;27.36;45.73;102680.69;5061309;28;20031;-76
2022/10/06 10:42:43;;;;;;;4.25;1.50;;;;;;;28.01;44.26;102683.16;5056427;28;20045;-76
2022/10/06 10:45:21;;;;;;;2.38;1.00;;;;;;;28.55;43.29;102688.91;5062533;28;20396;-76
2022/10/06 10:47:48;;;;;;;3.30;1.17;;;;;;;27.55;43.60;102700.59;5058795;28;20029;-76
2022/10/06 10:50:30;;;;;;;4.53;1.90;;;;;;;24.86;47.27;102689.31;5059848;28;20075;-76
2022/10/06 10:53:28;;;;;;;2.45;1.52;;;;;;;25.32;46.70;102696.75;5060451;28;20526;-76
2022/10/06 10:55:54;;;;;;;3.05;1.50;;;;;;;25.11;47.45;102696.88;5059029;28;20020;-76
2022/10/06 10:58:35;;;;;;;5.47;1.30;;;;;;;25.22;47.18;102674.72;5059770;28;20100;-75
2022/10/06 11:01:14;;;;;;;3.30;1.40;;;;;;;26.05;47.23;102698.78;5063317;28;20369;-75
2022/10/06 11:03:39;;;;;;;2.45;1.17;;;;;;;27.72;43.94;102703.59;5062182;28;20036;-76
2022/10/06 11:06:17;;;;;;;3.67;1.20;;;;;;;28.88;43.50;102713.78;5060456;28;20032;-76
2022/10/06 11:08:54;;;;;;;3.70;1.35;;;;;;;29.82;41.50;102713.34;5058218;28;20078;-76
2022/10/06 11:12:02;;;;;;;3.53;1.20;;;;;;;29.08;39.99;102708.09;5061494;28;20024;-76
2022/10/06 11:14:49;;;;;;;5.38;1.63;;;;;;;26.97;43.72;102726.72;5055701;28;20136;-76
2022/10/06 11:17:29;;;;;;;5.97;1.50;;;;;;;26.10;44.94;102709.78;5052238;28;20064;-76
2022/10/06 11:20:00;;;;;;;;;;;;;;;25.90;44.43;102709.81;5053832;28;20563;-76
2022/10/06 11:22:40;;;;;;;4.53;1.15;;;;;;;26.48;44.34;102717.25;5053603;28;19915;-76
2022/10/06 11:25:39;;;;;;;3.30;1.60;;;;;;;26.34;46.94;102716.44;5053972;28;20190;-77
2022/10/06 11:28:19;;;;;;;2.53;1.38;;;;;;;27.45;46.63;102722.75;5047276;28;20495;-76
2022/10/06 11:31:14;;;;;;;4.57;1.20;;;;;;;27.73;43.07;102725.09;5052220;28;20044;-76
2022/10/06 11:33:48;;;;;;;3.50;1.25;;;;;;;28.59;43.27;102709.13;5047725;28;20041;-76